Time;durP1;ratioP1;P1;durP2;ratioP2;P2;SDS_P1;SDS_P2;PMS_P1;PMS_P2;Temp;Humidity;BMP_temperature;BMP_pressure;BME280_temperature;BME280_humidity;BME280_pressure;Samples;Min_cycle;Max_cycle;Signal;HPM_P1;HPM_P2
2022/08/19 00:00:40;;;;;;;40.35;26.20;;;;;;;18.73;90.68;98151.03;4182616;28;20483;-71
2022/08/19 00:02:41;;;;;;;38.50;26.27;;;;;;;18.69;90.75;98147.53;4184182;28;20436;-71
2022/08/19 00:04:42;;;;;;;36.88;25.08;;;;;;;18.65;90.94;98151.66;4181686;28;20040;-71
2022/08/19 00:06:44;;;;;;;38.40;24.50;;;;;;;18.68;90.64;98139.56;4184025;28;20366;-71
2022/08/19 00:08:44;;;;;;;36.58;24.52;;;;;;;18.68;90.59;98147.97;4179674;28;20067;-71
2022/08/19 00:10:45;;;;;;;38.78;25.90;;;;;;;18.65;90.73;98146.84;4183351;28;20108;-71
2022/08/19 00:12:46;;;;;;;33.10;23.05;;;;;;;18.69;90.63;98141.16;4181232;28;20464;-71
2022/08/19 00:14:46;;;;;;;34.70;23.17;;;;;;;18.67;90.66;98146.41;4184559;28;20060;-71
2022/08/19 00:16:48;;;;;;;38.63;24.25;;;;;;;18.63;91.11;98140.88;4183717;28;20033;-71
2022/08/19 00:18:48;;;;;;;40.00;24.90;;;;;;;18.59;91.39;98147.78;4182475;28;20057;-71
2022/08/19 00:20:48;;;;;;;33.28;21.73;;;;;;;18.58;91.60;98137.81;4183799;28;20346;-71
2022/08/19 00:22:49;;;;;;;36.30;24.45;;;;;;;18.61;91.40;98139.72;4182284;28;20055;-71
2022/08/19 00:24:49;;;;;;;37.00;24.67;;;;;;;18.61;91.29;98143.31;4183627;28;20084;-71
2022/08/19 00:26:50;;;;;;;37.22;24.55;;;;;;;18.60;91.74;98138.16;4181586;28;20055;-71
2022/08/19 00:28:51;;;;;;;34.80;24.75;;;;;;;18.57;91.83;98139.06;4183043;28;20041;-71
2022/08/19 00:30:52;;;;;;;33.03;23.17;;;;;;;18.56;92.05;98126.28;4181986;28;20388;-71
2022/08/19 00:32:56;;;;;;;37.83;24.45;;;;;;;18.55;92.03;98125.50;4181069;28;20065;-71
2022/08/19 00:34:57;;;;;;;38.63;26.10;;;;;;;18.52;91.83;98120.75;4183206;28;20455;-71
2022/08/19 00:36:59;;;;;;;34.85;23.55;;;;;;;18.54;91.60;98118.31;4185807;28;20068;-71
2022/08/19 00:39:00;;;;;;;32.03;21.65;;;;;;;18.55;91.55;98117.09;4183610;28;20337;-71
2022/08/19 00:41:00;;;;;;;33.45;23.13;;;;;;;18.53;91.59;98109.13;4184433;28;20064;-71
2022/08/19 00:43:01;;;;;;;37.83;24.23;;;;;;;18.55;91.71;98110.69;4184206;28;20342;-71
2022/08/19 00:45:11;;;;;;;33.17;23.13;;;;;;;18.58;91.30;98112.59;4183573;28;20147;-71
2022/08/19 00:47:12;;;;;;;39.17;24.48;;;;;;;18.58;91.58;98110.59;4183856;28;20789;-71
2022/08/19 00:49:19;;;;;;;37.05;24.75;;;;;;;18.56;91.80;98109.47;4183845;28;20052;-71
2022/08/19 00:51:19;;;;;;;37.28;25.25;;;;;;;18.54;92.05;98109.91;4184950;28;20500;-71
2022/08/19 00:53:23;;;;;;;39.20;25.15;;;;;;;18.53;91.96;98099.91;4184010;28;20051;-71
2022/08/19 00:55:28;;;;;;;35.13;22.27;;;;;;;18.53;92.02;98106.31;4182991;28;20064;-71
2022/08/19 00:57:41;;;;;;;34.05;23.00;;;;;;;18.54;92.15;98112.72;4184724;28;20080;-71
2022/08/19 00:59:45;;;;;;;37.92;25.45;;;;;;;18.56;91.72;98109.47;4183190;28;20041;-71
2022/08/19 01:01:46;;;;;;;34.33;23.50;;;;;;;18.51;92.03;98108.75;4184741;28;20298;-71
2022/08/19 01:03:46;;;;;;;35.10;23.88;;;;;;;18.53;91.92;98108.31;4183688;28;20135;-71
2022/08/19 01:05:48;;;;;;;33.83;23.10;;;;;;;18.55;92.04;98110.69;4184974;28;20044;-71
2022/08/19 01:07:50;;;;;;;32.80;21.73;;;;;;;18.57;91.78;98111.03;4184010;28;20047;-71
2022/08/19 01:09:51;;;;;;;34.35;24.23;;;;;;;18.59;91.73;98117.75;4183831;28;20040;-71
2022/08/19 01:11:52;;;;;;;30.13;22.13;;;;;;;18.57;91.51;98106.22;4187201;28;20049;-71
2022/08/19 01:13:53;;;;;;;35.10;23.50;;;;;;;18.56;91.57;98104.66;4186684;28;20047;-71
2022/08/19 01:15:58;;;;;;;31.63;22.00;;;;;;;18.59;91.32;98112.16;4186749;28;20064;-71
2022/08/19 01:18:07;;;;;;;32.50;21.95;;;;;;;18.59;91.15;98109.34;4187147;28;20332;-71
2022/08/19 01:20:16;;;;;;;30.55;22.20;;;;;;;18.61;91.11;98097.69;4184557;28;20043;-71
2022/08/19 01:22:16;;;;;;;30.10;22.13;;;;;;;18.63;91.08;98098.84;4185475;28;20055;-71
2022/08/19 01:24:16;;;;;;;26.60;20.40;;;;;;;18.64;90.97;98091.25;4185046;28;20024;-71
2022/08/19 01:26:22;;;;;;;34.13;22.50;;;;;;;18.61;91.05;98084.47;4188000;28;20040;-71
2022/08/19 01:28:26;;;;;;;26.65;20.40;;;;;;;18.62;90.85;98088.88;4185802;28;20555;-71
2022/08/19 01:30:30;;;;;;;30.10;20.95;;;;;;;18.63;90.49;98086.88;4187783;28;20564;-71
2022/08/19 01:32:30;;;;;;;28.25;20.80;;;;;;;18.64;89.99;98082.84;4186513;28;20079;-71
2022/08/19 01:34:31;;;;;;;28.80;21.75;;;;;;;18.64;90.49;98089.22;4187157;28;20044;-71
2022/08/19 01:36:32;;;;;;;26.80;19.83;;;;;;;18.63;90.69;98084.06;4187794;28;20098;-72
2022/08/19 01:38:38;;;;;;;30.88;21.35;;;;;;;18.61;90.24;98080.91;4184736;28;20049;-71
2022/08/19 01:40:39;;;;;;;28.55;21.42;;;;;;;18.62;90.43;98074.88;4187120;28;20041;-71
2022/08/19 01:42:40;;;;;;;25.90;20.35;;;;;;;18.64;90.25;98085.63;4186774;28;20048;-71
2022/08/19 01:44:41;;;;;;;29.40;20.60;;;;;;;18.61;90.60;98084.47;4186767;28;20423;-71
2022/08/19 01:46:43;;;;;;;25.20;19.60;;;;;;;18.60;89.74;98094.13;4185000;28;20037;-71
2022/08/19 01:48:44;;;;;;;23.80;18.08;;;;;;;18.63;89.46;98093.25;4186412;28;20037;-71
2022/08/19 01:50:44;;;;;;;22.52;17.65;;;;;;;18.65;89.32;98095.59;4186496;28;20080;-71
2022/08/19 01:52:45;;;;;;;21.60;17.77;;;;;;;18.67;89.58;98099.56;4185861;28;20400;-70
2022/08/19 01:54:45;;;;;;;22.75;18.25;;;;;;;18.68;89.52;98101.13;4187370;28;20135;-70
2022/08/19 01:56:46;;;;;;;25.23;18.60;;;;;;;18.64;90.30;98089.22;4186327;28;20087;-71
2022/08/19 01:58:54;;;;;;;23.90;16.67;;;;;;;18.63;90.37;98089.66;4185317;28;20403;-71
2022/08/19 02:00:55;;;;;;;26.65;19.25;;;;;;;18.59;90.14;98078.53;4186417;28;20098;-71
2022/08/19 02:02:55;;;;;;;23.77;18.75;;;;;;;18.55;90.83;98083.47;4186057;28;20109;-71
2022/08/19 02:04:55;;;;;;;21.50;17.08;;;;;;;18.56;90.84;98089.84;4186443;28;20097;-71
2022/08/19 02:06:57;;;;;;;21.58;15.88;;;;;;;18.53;90.44;98081.09;4187112;28;20133;-71
2022/08/19 02:08:58;;;;;;;21.08;16.65;;;;;;;18.60;90.90;98070.91;4184387;28;20044;-71
2022/08/19 02:10:58;;;;;;;21.58;17.08;;;;;;;18.55;91.06;98058.25;4186815;28;20392;-71
2022/08/19 02:12:59;;;;;;;22.40;16.70;;;;;;;18.51;91.07;98055.53;4185607;28;20584;-71
2022/08/19 02:15:01;;;;;;;22.30;18.05;;;;;;;18.44;91.99;98061.31;4184888;28;20053;-71
2022/08/19 02:17:03;;;;;;;24.05;17.80;;;;;;;18.39;92.36;98052.69;4187414;28;20041;-71
2022/08/19 02:19:03;;;;;;;24.20;17.80;;;;;;;18.36;92.51;98054.34;4185451;28;20051;-71
2022/08/19 02:21:04;;;;;;;21.65;17.02;;;;;;;18.32;92.79;98056.47;4185840;28;20396;-71
2022/08/19 02:23:05;;;;;;;20.58;16.67;;;;;;;18.33;92.24;98058.03;4184565;28;20044;-71
2022/08/19 02:25:06;;;;;;;22.67;16.90;;;;;;;18.30;93.29;98052.53;4187330;28;20056;-71
2022/08/19 02:27:06;;;;;;;22.25;17.13;;;;;;;18.30;93.53;98053.31;4186354;28;20036;-71
2022/08/19 02:29:07;;;;;;;21.42;16.38;;;;;;;18.27;93.17;98047.78;4184903;28;20048;-71
2022/08/19 02:31:14;;;;;;;23.60;18.25;;;;;;;18.30;93.71;98053.31;4185886;28;20040;-71
2022/08/19 02:33:15;;;;;;;23.70;17.40;;;;;;;18.38;94.00;98053.91;4185624;28;20040;-71
2022/08/19 02:35:16;;;;;;;25.05;18.25;;;;;;;18.30;94.71;98047.72;4186416;28;20052;-71
2022/08/19 02:39:35;;;;;;;26.15;17.27;;;;;;;18.24;95.32;98039.06;4184088;28;20243;-71
2022/08/19 02:41:36;;;;;;;21.58;16.90;;;;;;;18.29;95.30;98040.53;4185517;28;20044;-71
2022/08/19 02:43:36;;;;;;;22.98;17.30;;;;;;;18.27;95.28;98042.97;4185745;28;20408;-71
2022/08/19 02:45:41;;;;;;;23.42;17.15;;;;;;;18.28;95.87;98046.56;4184402;28;20459;-71
2022/08/19 02:47:42;;;;;;;23.50;16.85;;;;;;;18.24;95.87;98050.25;4186153;28;20060;-71
2022/08/19 02:49:43;;;;;;;21.27;16.98;;;;;;;18.23;96.44;98059.09;4184964;28;20127;-71
2022/08/19 02:51:46;;;;;;;21.15;16.45;;;;;;;18.18;96.71;98057.59;4185986;28;20125;-71
2022/08/19 02:53:47;;;;;;;21.85;17.60;;;;;;;18.20;96.97;98069.16;4185676;28;20041;-71
2022/08/19 02:55:48;;;;;;;20.83;16.17;;;;;;;18.19;97.33;98067.56;4185790;28;20436;-71
2022/08/19 02:57:48;;;;;;;24.90;18.98;;;;;;;18.19;96.58;98072.38;4186076;28;20052;-71
2022/08/19 02:59:49;;;;;;;25.65;19.15;;;;;;;18.18;96.31;98066.00;4184659;28;20388;-71
2022/08/19 03:01:50;;;;;;;26.40;18.67;;;;;;;18.15;96.47;98066.09;4185155;28;20428;-71
2022/08/19 03:03:50;;;;;;;25.65;18.55;;;;;;;18.15;96.82;98063.31;4186311;28;20050;-71
2022/08/19 03:05:51;;;;;;;24.15;18.33;;;;;;;18.16;96.69;98074.06;4184323;28;20072;-71
2022/08/19 03:07:51;;;;;;;27.45;18.60;;;;;;;18.15;96.51;98082.91;4184916;28;20078;-71
2022/08/19 03:09:52;;;;;;;24.85;18.80;;;;;;;18.16;96.42;98082.47;4184531;28;20040;-71
2022/08/19 03:11:53;;;;;;;26.92;19.83;;;;;;;18.13;96.89;98085.34;4183756;28;20044;-71
2022/08/19 03:13:54;;;;;;;25.95;18.08;;;;;;;18.11;97.08;98090.59;4185179;28;20342;-71
2022/08/19 03:15:54;;;;;;;29.23;19.17;;;;;;;18.10;97.07;98083.41;4185368;28;20469;-71
2022/08/19 03:17:54;;;;;;;27.88;19.05;;;;;;;18.13;96.85;98086.16;4184357;28;20040;-71
2022/08/19 03:19:55;;;;;;;23.55;17.58;;;;;;;18.12;97.11;98087.38;4185030;28;20040;-71
2022/08/19 03:21:55;;;;;;;28.40;19.92;;;;;;;18.08;97.39;98092.25;4179289;28;20048;-71
2022/08/19 03:23:58;;;;;;;27.98;19.92;;;;;;;18.09;97.01;98099.44;4184303;28;20049;-71
2022/08/19 03:25:58;;;;;;;28.25;19.45;;;;;;;18.09;97.27;98102.22;4185519;28;20028;-71
2022/08/19 03:27:59;;;;;;;30.02;20.85;;;;;;;18.06;97.38;98097.50;4183383;28;20136;-71
2022/08/19 03:29:59;;;;;;;32.13;21.40;;;;;;;18.07;97.71;98109.50;4184693;28;20329;-71
2022/08/19 03:32:03;;;;;;;28.52;20.85;;;;;;;18.09;97.60;98107.81;4185553;28;20300;-71
2022/08/19 03:34:03;;;;;;;29.08;20.92;;;;;;;18.05;97.30;98104.34;4183346;28;20048;-71
2022/08/19 03:36:09;;;;;;;31.00;21.80;;;;;;;18.06;97.24;98107.94;4184830;28;20042;-71
2022/08/19 03:38:10;;;;;;;28.35;21.02;;;;;;;18.00;97.95;98106.88;4184345;28;20063;-71
2022/08/19 03:40:10;;;;;;;29.35;21.60;;;;;;;17.92;97.98;98100.66;4182999;28;20028;-71
2022/08/19 03:42:11;;;;;;;31.30;21.25;;;;;;;17.92;98.13;98109.84;4183923;28;20033;-71
2022/08/19 03:44:17;;;;;;;27.83;20.45;;;;;;;17.94;97.96;98115.00;4185374;28;20123;-71
2022/08/19 03:46:21;;;;;;;29.88;19.20;;;;;;;17.93;98.08;98107.81;4183166;28;20441;-71
2022/08/19 03:48:21;;;;;;;30.00;19.05;;;;;;;17.92;97.75;98115.44;4180450;28;20146;-71
2022/08/19 03:50:21;;;;;;;27.40;19.40;;;;;;;17.91;97.79;98122.25;4180240;28;20072;-71
2022/08/19 03:52:22;;;;;;;26.45;18.42;;;;;;;17.89;97.82;98121.91;4181798;28;20052;-71
2022/08/19 03:54:24;;;;;;;28.27;19.38;;;;;;;17.92;97.33;98129.44;4182833;28;20489;-71
2022/08/19 03:56:26;;;;;;;28.63;20.17;;;;;;;17.92;97.82;98123.81;4179312;28;20052;-71
2022/08/19 03:58:31;;;;;;;27.55;19.08;;;;;;;17.94;97.72;98137.38;4175829;28;20130;-71
2022/08/19 04:00:33;;;;;;;24.45;18.73;;;;;;;18.00;97.78;98135.66;4180315;28;20444;-71
2022/08/19 04:02:33;;;;;;;24.40;18.55;;;;;;;18.01;97.84;98136.44;4182355;28;20049;-71
2022/08/19 04:04:33;;;;;;;24.35;18.02;;;;;;;17.99;96.95;98142.47;4181293;28;20163;-71
2022/08/19 04:06:38;;;;;;;25.02;18.85;;;;;;;18.02;97.14;98141.59;4184530;28;20040;-71
2022/08/19 04:08:40;;;;;;;28.13;17.52;;;;;;;18.03;97.32;98136.78;4181098;28;20045;-71
2022/08/19 04:10:41;;;;;;;25.80;19.63;;;;;;;17.95;97.89;98138.94;4179294;28;20276;-71
2022/08/19 04:12:42;;;;;;;23.27;17.80;;;;;;;18.00;98.06;98140.47;4183855;28;20107;-71
2022/08/19 04:14:42;;;;;;;28.90;20.30;;;;;;;17.92;98.12;98140.63;4184841;28;20203;-71
2022/08/19 04:16:44;;;;;;;28.85;19.65;;;;;;;17.91;98.06;98133.44;4182723;28;20041;-71
2022/08/19 04:18:44;;;;;;;28.35;19.33;;;;;;;17.96;98.45;98140.56;4183459;28;20543;-71
2022/08/19 04:20:47;;;;;;;28.48;20.70;;;;;;;17.90;98.96;98139.50;4182468;28;20057;-71
2022/08/19 04:22:47;;;;;;;24.55;19.33;;;;;;;17.91;98.78;98132.66;4182497;28;20076;-71
2022/08/19 04:24:48;;;;;;;25.88;18.23;;;;;;;17.91;99.29;98136.25;4183493;28;20421;-71
2022/08/19 04:26:49;;;;;;;29.25;19.15;;;;;;;17.96;99.19;98138.53;4177776;28;20049;-72
2022/08/19 04:28:51;;;;;;;24.42;18.50;;;;;;;17.94;99.49;98126.19;4174369;28;20041;-71
2022/08/19 04:30:54;;;;;;;30.70;19.05;;;;;;;17.91;99.77;98130.66;4176158;28;20049;-71
2022/08/19 04:32:54;;;;;;;28.20;19.13;;;;;;;17.93;99.53;98133.78;4176759;28;20051;-71
2022/08/19 04:34:58;;;;;;;26.33;20.00;;;;;;;17.93;99.42;98135.81;4182420;28;20389;-71
2022/08/19 04:36:59;;;;;;;27.30;19.85;;;;;;;17.88;100.00;98130.75;4179969;28;20506;-71
2022/08/19 04:39:04;;;;;;;25.23;19.17;;;;;;;17.90;99.63;98125.50;4180772;28;20139;-71
2022/08/19 04:43:23;;;;;;;27.13;19.38;;;;;;;17.91;100.00;98118.66;4182234;28;20536;-71
2022/08/19 04:45:23;;;;;;;27.58;19.50;;;;;;;17.90;100.00;98117.88;4182764;28;20080;-71
2022/08/19 04:47:24;;;;;;;28.30;20.50;;;;;;;17.89;100.00;98121.13;4188278;28;20044;-71
2022/08/19 04:49:25;;;;;;;29.65;20.80;;;;;;;17.91;100.00;98124.28;4187940;28;20509;-71
2022/08/19 04:51:25;;;;;;;30.27;19.92;;;;;;;17.93;100.00;98128.19;4185064;28;20056;-71
2022/08/19 04:53:28;;;;;;;25.42;18.52;;;;;;;17.94;100.00;98126.97;4185309;28;20545;-71
2022/08/19 04:55:28;;;;;;;27.73;20.27;;;;;;;17.96;100.00;98132.94;4186189;28;20073;-71
2022/08/19 04:57:29;;;;;;;28.08;20.88;;;;;;;17.97;100.00;98119.72;4187090;28;20239;-71
2022/08/19 04:59:29;;;;;;;26.80;19.98;;;;;;;17.97;100.00;98119.72;4186500;28;20048;-71
2022/08/19 05:01:32;;;;;;;25.58;19.67;;;;;;;17.97;100.00;98125.34;4187108;28;20135;-71
2022/08/19 05:03:33;;;;;;;26.80;20.40;;;;;;;18.02;100.00;98132.41;4186150;28;20052;-71
2022/08/19 05:05:38;;;;;;;30.55;21.17;;;;;;;17.93;100.00;98117.00;4184197;28;20737;-71
2022/08/19 05:07:40;;;;;;;30.70;21.60;;;;;;;17.94;100.00;98131.78;4126881;28;20053;-71
2022/08/19 05:09:41;;;;;;;28.67;21.17;;;;;;;17.91;100.00;98127.84;4185502;28;20051;-71
2022/08/19 05:11:42;;;;;;;27.10;20.38;;;;;;;17.98;100.00;98129.69;4185859;28;20041;-71
2022/08/19 05:13:44;;;;;;;28.00;20.45;;;;;;;18.01;100.00;98131.63;4187452;28;20080;-71
2022/08/19 05:15:54;;;;;;;28.45;21.15;;;;;;;17.95;100.00;98127.75;4188064;28;20094;-71
2022/08/19 05:22:46;;;;;;;29.77;21.33;;;;;;;18.02;100.00;98127.59;4181194;28;20502;-71
2022/08/19 05:24:46;;;;;;;25.80;20.25;;;;;;;18.01;100.00;98139.22;4183713;28;20076;-71
2022/08/19 05:26:49;;;;;;;28.75;20.73;;;;;;;18.02;100.00;98140.81;4184331;28;20047;-71
2022/08/19 05:28:49;;;;;;;29.73;21.63;;;;;;;18.06;100.00;98152.72;4185743;28;20052;-71
2022/08/19 05:30:50;;;;;;;31.55;21.95;;;;;;;18.07;100.00;98151.50;4185168;28;20561;-71
2022/08/19 05:32:51;;;;;;;29.42;21.65;;;;;;;18.04;100.00;98164.34;4179828;28;20049;-71
2022/08/19 05:34:51;;;;;;;30.38;21.95;;;;;;;18.01;100.00;98145.63;4182499;28;20496;-71
2022/08/19 05:36:59;;;;;;;24.20;19.33;;;;;;;18.03;100.00;98145.97;4184901;28;20055;-71
2022/08/19 05:38:59;;;;;;;28.50;22.38;;;;;;;18.00;100.00;98146.84;4186084;28;20516;-71
2022/08/19 05:40:59;;;;;;;31.60;21.83;;;;;;;18.03;100.00;98143.16;4187687;28;20127;-71
2022/08/19 05:43:00;;;;;;;31.38;22.20;;;;;;;18.04;100.00;98138.34;4186611;28;20392;-71
2022/08/19 05:45:01;;;;;;;33.83;22.92;;;;;;;18.04;100.00;98147.56;4187124;28;20064;-71
2022/08/19 05:47:04;;;;;;;28.98;20.83;;;;;;;18.05;100.00;98156.75;4187221;28;20720;-71
2022/08/19 05:49:06;;;;;;;24.55;18.88;;;;;;;18.12;100.00;98153.75;4187097;28;20068;-71
2022/08/19 05:51:08;;;;;;;25.58;19.73;;;;;;;18.08;100.00;98153.06;4187290;28;20102;-71
2022/08/19 05:53:08;;;;;;;25.23;18.63;;;;;;;18.11;100.00;98160.56;4187296;28;20041;-71
2022/08/19 05:55:09;;;;;;;22.70;17.70;;;;;;;18.07;100.00;98157.88;4186743;28;20055;-71
2022/08/19 05:57:10;;;;;;;24.08;17.55;;;;;;;18.11;100.00;98152.97;4184597;28;20072;-71
2022/08/19 05:59:11;;;;;;;22.75;17.17;;;;;;;18.13;100.00;98160.94;4185321;28;20053;-71
2022/08/19 06:01:15;;;;;;;21.25;16.20;;;;;;;18.12;100.00;98167.75;4186604;28;20037;-71
2022/08/19 06:03:15;;;;;;;19.25;14.85;;;;;;;18.09;100.00;98160.22;4185916;28;20033;-71
2022/08/19 06:05:16;;;;;;;17.50;13.65;;;;;;;18.14;97.46;98163.31;4187230;28;20036;-71
2022/08/19 06:07:16;;;;;;;17.00;12.80;;;;;;;18.10;96.62;98173.78;4186410;28;20048;-71
2022/08/19 06:09:17;;;;;;;16.65;12.27;;;;;;;18.10;96.35;98173.00;4184820;28;20044;-71
2022/08/19 06:11:32;;;;;;;14.23;11.20;;;;;;;18.10;95.34;98181.41;4186462;28;20296;-71
2022/08/19 06:13:32;;;;;;;15.02;11.48;;;;;;;18.11;95.63;98185.78;4185906;28;20036;-71
2022/08/19 06:15:32;;;;;;;12.40;10.38;;;;;;;18.14;95.05;98188.50;4187381;28;20696;-72
2022/08/19 06:17:34;;;;;;;13.48;11.05;;;;;;;18.06;96.58;98189.91;4186411;28;20442;-72
2022/08/19 06:19:37;;;;;;;12.70;10.45;;;;;;;17.97;97.12;98195.31;4185338;28;20159;-72
2022/08/19 06:21:40;;;;;;;17.13;10.02;;;;;;;17.93;96.89;98197.38;4186322;28;20414;-72
2022/08/19 06:23:40;;;;;;;14.35;9.45;;;;;;;17.93;97.68;98197.38;4186716;28;20040;-72
2022/08/19 06:25:41;;;;;;;12.85;9.07;;;;;;;17.88;96.67;98195.91;4186131;28;20481;-72
2022/08/19 06:27:41;;;;;;;10.15;7.53;;;;;;;17.78;95.86;98199.69;4187202;28;20472;-72
2022/08/19 06:29:42;;;;;;;10.95;8.02;;;;;;;17.76;96.08;98204.16;4186592;28;20058;-71
2022/08/19 06:31:46;;;;;;;10.05;7.13;;;;;;;17.74;95.65;98201.81;4187533;28;20048;-71
2022/08/19 06:33:48;;;;;;;7.88;7.07;;;;;;;17.61;96.12;98209.22;4184345;28;20043;-72
2022/08/19 06:35:48;;;;;;;9.30;6.43;;;;;;;17.64;95.30;98208.38;4187252;28;20374;-71
2022/08/19 06:37:48;;;;;;;7.00;5.80;;;;;;;17.58;95.34;98198.91;4186383;28;20068;-71
2022/08/19 06:39:49;;;;;;;7.82;5.95;;;;;;;17.60;95.32;98204.88;4186093;28;20055;-71
2022/08/19 06:41:54;;;;;;;8.20;6.28;;;;;;;17.65;95.42;98204.38;4186258;28;20078;-71
2022/08/19 06:43:55;;;;;;;11.20;6.07;;;;;;;17.59;95.50;98209.66;4186636;28;20377;-71
2022/08/19 06:45:56;;;;;;;8.70;6.30;;;;;;;17.55;95.44;98217.38;4185732;28;20072;-72
2022/08/19 06:47:56;;;;;;;7.90;6.00;;;;;;;17.58;95.97;98210.91;4185585;28;20267;-71
2022/08/19 06:50:02;;;;;;;9.23;6.78;;;;;;;17.58;95.88;98222.09;4185800;28;20182;-72
2022/08/19 06:52:03;;;;;;;9.38;6.93;;;;;;;17.60;96.05;98232.84;4186297;28;20461;-72
2022/08/19 06:54:04;;;;;;;9.98;6.85;;;;;;;17.58;95.60;98226.88;4186597;28;20033;-71
2022/08/19 06:56:04;;;;;;;9.35;6.20;;;;;;;17.61;95.36;98228.81;4186449;28;20468;-72
2022/08/19 06:58:05;;;;;;;8.63;6.00;;;;;;;17.59;94.82;98234.06;4186753;28;20036;-71
2022/08/19 07:00:10;;;;;;;8.10;6.32;;;;;;;17.61;95.08;98231.63;4185626;28;20115;-72
2022/08/19 07:02:11;;;;;;;9.15;5.90;;;;;;;17.63;94.90;98232.00;4185883;28;20418;-72
2022/08/19 07:04:11;;;;;;;6.30;5.43;;;;;;;17.66;94.92;98245.91;4185607;28;20098;-72
2022/08/19 07:06:17;;;;;;;7.00;6.30;;;;;;;17.68;94.74;98239.88;4185197;28;20078;-72
2022/08/19 07:08:17;;;;;;;8.57;6.18;;;;;;;17.70;93.85;98240.25;4186073;28;20256;-72
2022/08/19 07:10:19;;;;;;;7.32;5.90;;;;;;;17.71;92.29;98247.44;4185086;28;20024;-71
2022/08/19 07:12:19;;;;;;;7.93;5.85;;;;;;;17.77;92.06;98239.31;4186628;28;20040;-72
2022/08/19 07:14:23;;;;;;;6.68;5.88;;;;;;;17.85;90.61;98241.53;4186210;28;20032;-72
2022/08/19 07:16:24;;;;;;;8.32;6.28;;;;;;;17.86;90.55;98245.91;4185790;28;20041;-71
2022/08/19 07:18:25;;;;;;;7.47;5.85;;;;;;;17.86;91.00;98245.91;4185558;28;20036;-72
2022/08/19 07:20:25;;;;;;;8.25;5.93;;;;;;;17.86;90.72;98248.69;4185627;28;20040;-72
2022/08/19 07:22:26;;;;;;;9.32;5.95;;;;;;;17.88;90.89;98253.88;4186561;28;20085;-71
2022/08/19 07:24:27;;;;;;;7.38;5.63;;;;;;;17.87;90.80;98255.06;4183705;28;20173;-71
2022/08/19 07:26:30;;;;;;;11.52;6.20;;;;;;;17.95;90.63;98257.28;4184905;28;20051;-72
2022/08/19 07:28:31;;;;;;;8.60;6.10;;;;;;;17.93;91.12;98248.53;4184272;28;20403;-72
2022/08/19 07:30:31;;;;;;;9.02;6.00;;;;;;;17.92;91.49;98246.97;4185908;28;20550;-72
2022/08/19 07:32:32;;;;;;;8.57;6.30;;;;;;;17.92;92.00;98257.38;4185318;28;20044;-71
2022/08/19 07:34:36;;;;;;;8.88;6.57;;;;;;;17.94;92.27;98257.72;4185612;28;20033;-72
2022/08/19 07:36:40;;;;;;;7.43;5.70;;;;;;;17.94;92.60;98257.72;4184929;28;20449;-71
2022/08/19 07:38:42;;;;;;;8.23;6.30;;;;;;;17.94;92.56;98260.53;4185773;28;20602;-72
2022/08/19 07:40:45;;;;;;;10.55;6.50;;;;;;;17.92;92.34;98263.75;4185821;28;20074;-71
2022/08/19 07:42:45;;;;;;;9.02;6.97;;;;;;;17.96;93.16;98263.72;4185382;28;20045;-72
2022/08/19 07:44:46;;;;;;;10.30;7.70;;;;;;;17.94;93.70;98266.13;4185915;28;20079;-71
2022/08/19 07:46:50;;;;;;;9.25;7.40;;;;;;;17.99;93.44;98264.84;4184942;28;20055;-72
2022/08/19 07:48:51;;;;;;;13.82;7.85;;;;;;;18.01;93.75;98265.19;4180661;28;20057;-71
2022/08/19 07:50:57;;;;;;;10.63;7.70;;;;;;;18.00;93.75;98266.41;4183670;28;20502;-72
2022/08/19 07:52:57;;;;;;;10.98;8.52;;;;;;;18.00;93.51;98275.59;4185989;28;20060;-72
2022/08/19 07:54:59;;;;;;;8.48;7.57;;;;;;;18.03;92.62;98282.34;4184488;28;20037;-71
2022/08/19 07:57:00;;;;;;;10.95;7.47;;;;;;;18.08;92.78;98282.63;4183896;28;20055;-71
2022/08/19 07:59:01;;;;;;;8.73;6.72;;;;;;;18.08;90.83;98271.41;4183712;28;20048;-72
2022/08/19 08:01:04;;;;;;;9.18;6.50;;;;;;;18.04;89.78;98273.53;4183937;28;20436;-72
2022/08/19 08:03:04;;;;;;;8.73;6.93;;;;;;;18.04;90.00;98281.09;4183699;28;20494;-72
2022/08/19 08:09:43;;;;;;;7.32;5.03;;;;;;;18.03;86.86;98290.72;4183777;28;20078;-71
2022/08/19 08:12:02;;;;;;;6.40;4.88;;;;;;;18.03;86.78;98297.13;4184111;28;20043;-72
2022/08/19 08:14:04;;;;;;;5.75;5.15;;;;;;;18.01;87.12;98299.56;4184713;28;20049;-71
2022/08/19 08:16:05;;;;;;;14.48;5.50;;;;;;;18.00;86.42;98300.00;4184951;28;20086;-72
2022/08/19 08:18:07;;;;;;;5.63;5.13;;;;;;;18.02;86.79;98297.56;4185390;28;20024;-71
2022/08/19 08:20:08;;;;;;;6.53;5.07;;;;;;;18.05;85.48;98293.91;4183869;28;20028;-72
2022/08/19 08:23:21;;;;;;;7.07;4.70;;;;;;;18.05;85.70;98305.09;4187360;28;20044;-71
2022/08/19 08:24:30;;;;;;;6.93;5.03;;;;;;;18.07;85.71;98303.44;4187465;28;20900;-72
2022/08/19 08:26:31;;;;;;;6.95;5.07;;;;;;;18.10;85.26;98302.56;4188457;28;20059;-71
2022/08/19 08:28:31;;;;;;;7.43;4.65;;;;;;;18.11;85.40;98301.34;4186831;28;20049;-72
2022/08/19 08:30:34;;;;;;;5.35;4.28;;;;;;;18.12;84.67;98294.53;4187606;28;20527;-71
2022/08/19 08:32:38;;;;;;;6.55;5.03;;;;;;;18.12;84.95;98296.53;4186951;28;20071;-71
2022/08/19 08:34:38;;;;;;;9.45;4.85;;;;;;;18.17;84.36;98301.63;4187694;28;20171;-72
2022/08/19 08:36:42;;;;;;;8.15;5.07;;;;;;;18.19;83.74;98296.38;4188634;28;20460;-71
2022/08/19 08:38:46;;;;;;;7.80;5.00;;;;;;;18.24;83.65;98298.69;4187370;28;20090;-71
2022/08/19 08:41:06;;;;;;;5.90;4.70;;;;;;;18.28;83.48;98302.19;4188093;28;20044;-72
2022/08/19 08:43:23;;;;;;;6.22;4.93;;;;;;;18.34;83.37;98299.66;4187955;28;20044;-71
2022/08/19 08:45:24;;;;;;;6.35;4.35;;;;;;;18.33;83.46;98293.28;4186415;28;20032;-71
2022/08/19 08:47:26;;;;;;;5.40;4.35;;;;;;;18.34;83.54;98294.06;4188259;28;20147;-72
2022/08/19 08:49:40;;;;;;;6.00;4.32;;;;;;;18.37;83.36;98301.56;4187186;28;20049;-71
2022/08/19 08:51:47;;;;;;;6.15;4.13;;;;;;;18.41;82.27;98310.72;4187618;28;20118;-72
2022/08/19 08:53:50;;;;;;;7.63;5.25;;;;;;;18.41;82.36;98308.69;4188311;28;20052;-71
2022/08/19 08:55:51;;;;;;;4.68;4.13;;;;;;;18.47;82.61;98308.97;4187728;28;20083;-71
2022/08/19 08:58:15;;;;;;;5.53;4.22;;;;;;;18.49;82.20;98310.09;4187500;28;20048;-71
2022/08/19 09:00:25;;;;;;;4.88;3.90;;;;;;;18.53;81.07;98310.81;4187352;28;20472;-71
2022/08/19 09:02:26;;;;;;;6.53;4.10;;;;;;;18.57;81.14;98315.56;4187337;28;20090;-71
2022/08/19 09:04:27;;;;;;;7.70;4.35;;;;;;;18.59;81.52;98319.47;4187507;28;20400;-71
2022/08/19 09:06:54;;;;;;;5.65;4.15;;;;;;;18.63;80.72;98325.03;4187373;28;20048;-72
2022/08/19 09:09:06;;;;;;;5.53;4.88;;;;;;;18.66;80.36;98321.38;4185845;28;20242;-71
2022/08/19 09:11:12;;;;;;;5.65;4.63;;;;;;;18.70;79.87;98313.66;4186621;28;20033;-71
2022/08/19 09:13:27;;;;;;;8.30;6.47;;;;;;;18.80;77.98;98323.84;4186040;28;20076;-72
2022/08/19 09:15:38;;;;;;;5.85;5.20;;;;;;;18.83;78.08;98322.97;4185740;28;20055;-72
2022/08/19 09:17:38;;;;;;;4.82;3.97;;;;;;;18.85;77.70;98320.50;4187888;28;20047;-71
2022/08/19 09:19:55;;;;;;;6.40;3.42;;;;;;;18.92;77.60;98322.34;4185993;28;20052;-71
2022/08/19 09:21:55;;;;;;;3.78;3.38;;;;;;;18.95;77.19;98311.06;4188471;28;20048;-72
2022/08/19 09:23:57;;;;;;;4.63;3.28;;;;;;;19.04;76.92;98314.03;4187710;28;20044;-72
2022/08/19 09:25:57;;;;;;;5.60;3.30;;;;;;;19.12;75.98;98308.25;4187177;28;20048;-71
2022/08/19 09:28:02;;;;;;;7.65;3.60;;;;;;;19.25;75.93;98306.28;4187391;28;20408;-71
2022/08/19 09:30:03;;;;;;;4.50;3.60;;;;;;;19.32;74.86;98301.28;4186100;28;20091;-72
2022/08/19 09:32:04;;;;;;;3.70;3.15;;;;;;;19.39;73.77;98294.69;4187852;28;20044;-71
2022/08/19 09:34:04;;;;;;;3.65;2.72;;;;;;;19.53;72.84;98305.53;4186192;28;20036;-71
2022/08/19 09:36:07;;;;;;;3.90;3.00;;;;;;;19.62;72.24;98308.53;4186839;28;20040;-71
2022/08/19 09:38:08;;;;;;;6.05;2.97;;;;;;;19.69;71.78;98295.50;4186793;28;20488;-71
2022/08/19 09:40:09;;;;;;;4.50;2.88;;;;;;;19.70;70.69;98297.09;4186995;28;20352;-71